Monatstabelle

Bitte in den Auwahlmenüs den gewünschte Zeiraum wählen und die Schaltfläche "Anfrage absenden" betätigen. Beginn der Aufzeichnung ist 2007 - Dezember. Vor diesem Zeitraum sind keine Daten verfügbar.

2019 - Mai

 

Datum Temperatur (°C) Luftdruck (hPa) Luftfeuchte (%) Regen
(l/m²)
Wind (km/h)
avg: min: max: avg: min: max: avg: min: max: avg: max:
01.05.2019 13,1 9,1 19,5 1011,0 1010,1 1012,2 64 41 89 0,0 6,5 24,1
02.05.2019 15,1 7,3 24,1 1006,9 1004,9 1010,6 62 36 85 0,0 3,7 10,3
03.05.2019 12,9 10,7 17,9 1007,4 1004,1 1008,2 71 57 81 0,5 4,4 17,2
04.05.2019 10,7 8,1 14,3 1004,3 1002,0 1008,3 80 64 87 1,6 3,5 10,6
05.05.2019 4,1 3,6 8,1 1010,1 1003,9 1011,7 88 86 89 7,0 14,5 20,0
06.05.2019 6,7 3,5 9,5 1013,3 1010,4 1015,1 71 58 88 1,0 12,0 23,5
07.05.2019 8,2 1,9 14,8 1015,8 1014,9 1017,2 68 47 86 0,0 5,3 18,3
08.05.2019 14,0 6,5 19,5 1007,4 1002,9 1015,6 58 45 73 0,0 13,6 21,6
09.05.2019 12,0 9,0 15,3 1003,7 1001,3 1005,2 77 63 85 4,4 2,8 15,6
10.05.2019 14,6 7,3 19,9 1010,3 1005,2 1012,6 61 45 87 0,0 4,7 19,6
11.05.2019 13,7 7,2 23,1 1011,3 1008,7 1013,8 78 48 89 44,6 6,2 17,2
12.05.2019 8,9 7,2 11,5 1020,2 1012,9 1024,1 87 78 90 2,6 9,6 20,3
13.05.2019 8,4 6,9 11,3 1026,0 1023,9 1026,6 76 67 88 2,7 13,9 22,4
14.05.2019 6,6 5,0 9,3 1020,0 1017,8 1025,9 76 56 89 2,3 11,2 23,2
15.05.2019 6,1 4,9 7,9 1014,6 1013,9 1017,8 87 79 89 7,3 7,6 20,4
16.05.2019 9,8 5,2 13,2 1012,4 1011,3 1014,5 81 71 90 1,1 4,3 11,9
17.05.2019 11,7 3,5 19,1 1009,6 1008,0 1011,4 74 52 90 0,0 10,3 17,2
18.05.2019 14,9 9,9 19,7 1007,8 1006,5 1009,6 73 60 84 0,0 9,9 17,5
19.05.2019 15,9 10,8 22,5 1003,6 1002,1 1006,5 76 57 84 0,1 7,4 12,6
20.05.2019 14,4 11,6 20,1 1002,1 1000,7 1002,9 78 63 89 5,9 7,2 16,7
21.05.2019 14,6 7,6 19,5 1006,2 1002,2 1008,1 74 62 90 0,5 5,1 12,1
22.05.2019 14,7 13,4 16,5 1011,0 1007,5 1012,9 75 69 83 1,0 5,8 13,7
23.05.2019 14,6 11,6 18,3 1014,9 1012,9 1016,2 67 56 81 0,4 8,2 18,8
24.05.2019 15,8 8,6 21,9 1012,2 1010,9 1014,9 67 45 88 0,0 3,6 17,9
25.05.2019 18,6 9,2 25,1 1012,8 1011,6 1014,4 66 44 88 0,0 1,6 11,1
26.05.2019 17,1 12,8 24,4 1012,9 1012,1 1014,9 83 52 87 4,5 2,0 9,2
27.05.2019 15,9 13,4 20,3 1008,7 1007,1 1012,1 83 73 89 2,2 6,1 11,3
28.05.2019 15,6 13,7 18,5 1004,9 1002,9 1007,2 86 81 89 11,9 0,6 11,7
29.05.2019 11,4 10,1 13,7 1014,3 1007,2 1017,9 89 83 90 2,3 4,4 14,3
30.05.2019 11,1 9,4 14,8 1021,2 1017,6 1022,3 85 71 90 1,1 4,7 20,3
31.05.2019 15,0 9,1 20,7 1021,3 1020,1 1022,8 75 53 90 0,0 4,3 18,8
avg. 12,5 1011,6 75   ---
  Summe Regen: 105,2  
 
Min-Datum 07.05.2019 20.05.2019 02.05.2019 --- ---
Min-Zeit 06:26 04:50 14:40 --- ---
Minimum 1,9 1000,7 36 --- ---
 

Max-Datum

25.05.2019 13.05.2019 12.05.2019 11.05.2019 01.05.2019
Max-Zeit 15:24 22:10 05:36 20:48 10:38
Maximum 25,1 1026,6 90 44,6 24,1
 

 

  Letztes Jahr
gleiches Monat
Eistage max < 0°C 0 0
Frosttage min < 0°C 0 0
Sommertage max >=25°C 1 15
Heiße Tage max >=30°C 0 0

 

<<< nach oben >>>